sensor_id;sensor_type;location;lat;lon;timestamp;temperature;humidity
43520;DHT22;46848;51.980;5.918;2023-05-10T00:01:01;15.80;84.80
43520;DHT22;46848;51.980;5.918;2023-05-10T00:03:27;15.80;84.80
43520;DHT22;46848;51.980;5.918;2023-05-10T00:05:53;15.80;84.80
43520;DHT22;46848;51.980;5.918;2023-05-10T00:08:19;15.80;84.80
43520;DHT22;46848;51.980;5.918;2023-05-10T00:10:45;15.80;84.80
43520;DHT22;46848;51.980;5.918;2023-05-10T00:13:10;15.80;84.80
43520;DHT22;46848;51.980;5.918;2023-05-10T00:15:36;15.80;84.80
43520;DHT22;46848;51.980;5.918;2023-05-10T00:18:02;15.80;84.90
43520;DHT22;46848;51.980;5.918;2023-05-10T00:20:27;15.80;85.00
43520;DHT22;46848;51.980;5.918;2023-05-10T00:22:53;15.80;85.10
43520;DHT22;46848;51.980;5.918;2023-05-10T00:25:19;15.80;85.10
43520;DHT22;46848;51.980;5.918;2023-05-10T00:27:47;15.80;85.20
43520;DHT22;46848;51.980;5.918;2023-05-10T00:30:13;15.80;85.20
43520;DHT22;46848;51.980;5.918;2023-05-10T00:32:38;15.80;85.20
43520;DHT22;46848;51.980;5.918;2023-05-10T00:35:04;15.80;85.10
43520;DHT22;46848;51.980;5.918;2023-05-10T00:37:30;15.80;85.10
43520;DHT22;46848;51.980;5.918;2023-05-10T00:39:55;15.80;85.20
43520;DHT22;46848;51.980;5.918;2023-05-10T00:42:22;15.80;85.20
43520;DHT22;46848;51.980;5.918;2023-05-10T00:44:47;15.80;85.20
43520;DHT22;46848;51.980;5.918;2023-05-10T00:47:13;15.70;85.20
43520;DHT22;46848;51.980;5.918;2023-05-10T00:49:39;15.80;85.10
43520;DHT22;46848;51.980;5.918;2023-05-10T00:52:06;15.80;85.00
43520;DHT22;46848;51.980;5.918;2023-05-10T00:54:34;15.70;84.90
43520;DHT22;46848;51.980;5.918;2023-05-10T00:57:00;15.80;85.00
43520;DHT22;46848;51.980;5.918;2023-05-10T00:59:26;15.70;85.10
43520;DHT22;46848;51.980;5.918;2023-05-10T01:01:52;15.70;85.10
43520;DHT22;46848;51.980;5.918;2023-05-10T01:04:18;15.70;85.20
43520;DHT22;46848;51.980;5.918;2023-05-10T01:06:47;15.70;85.30
43520;DHT22;46848;51.980;5.918;2023-05-10T01:09:12;15.70;85.20
43520;DHT22;46848;51.980;5.918;2023-05-10T01:11:38;15.70;85.20
43520;DHT22;46848;51.980;5.918;2023-05-10T01:14:05;15.70;85.10
43520;DHT22;46848;51.980;5.918;2023-05-10T01:16:34;15.70;85.10
43520;DHT22;46848;51.980;5.918;2023-05-10T01:19:01;15.80;85.20
43520;DHT22;46848;51.980;5.918;2023-05-10T01:21:38;15.70;85.00
43520;DHT22;46848;51.980;5.918;2023-05-10T01:24:21;15.80;85.20
43520;DHT22;46848;51.980;5.918;2023-05-10T01:35:15;15.70;85.20
43520;DHT22;46848;51.980;5.918;2023-05-10T01:38:07;15.70;85.30
43520;DHT22;46848;51.980;5.918;2023-05-10T01:43:21;15.70;85.30
43520;DHT22;46848;51.980;5.918;2023-05-10T01:46:09;15.70;85.30
43520;DHT22;46848;51.980;5.918;2023-05-10T01:48:46;15.70;85.30
43520;DHT22;46848;51.980;5.918;2023-05-10T01:51:19;15.70;85.10
43520;DHT22;46848;51.980;5.918;2023-05-10T01:53:48;15.70;85.20
43520;DHT22;46848;51.980;5.918;2023-05-10T01:56:14;15.70;85.30
43520;DHT22;46848;51.980;5.918;2023-05-10T01:58:43;15.70;85.30
43520;DHT22;46848;51.980;5.918;2023-05-10T02:01:11;15.70;85.20
43520;DHT22;46848;51.980;5.918;2023-05-10T02:03:38;15.70;85.10
43520;DHT22;46848;51.980;5.918;2023-05-10T02:06:05;15.70;85.40
43520;DHT22;46848;51.980;5.918;2023-05-10T02:08:33;15.70;85.40
43520;DHT22;46848;51.980;5.918;2023-05-10T02:11:01;15.60;85.40
43520;DHT22;46848;51.980;5.918;2023-05-10T02:13:29;15.70;85.50
43520;DHT22;46848;51.980;5.918;2023-05-10T02:15:57;15.60;85.50
43520;DHT22;46848;51.980;5.918;2023-05-10T02:18:24;15.60;85.50
43520;DHT22;46848;51.980;5.918;2023-05-10T02:20:52;15.60;85.50
43520;DHT22;46848;51.980;5.918;2023-05-10T02:23:20;15.60;85.50
43520;DHT22;46848;51.980;5.918;2023-05-10T02:25:47;15.60;85.50
43520;DHT22;46848;51.980;5.918;2023-05-10T02:28:14;15.70;85.70
43520;DHT22;46848;51.980;5.918;2023-05-10T02:30:41;15.70;85.80
43520;DHT22;46848;51.980;5.918;2023-05-10T02:33:07;15.70;85.80
43520;DHT22;46848;51.980;5.918;2023-05-10T02:35:34;15.70;85.90
43520;DHT22;46848;51.980;5.918;2023-05-10T02:38:00;15.70;86.00
43520;DHT22;46848;51.980;5.918;2023-05-10T02:40:27;15.70;85.70
43520;DHT22;46848;51.980;5.918;2023-05-10T02:42:55;15.70;85.80
43520;DHT22;46848;51.980;5.918;2023-05-10T02:45:24;15.60;85.70
43520;DHT22;46848;51.980;5.918;2023-05-10T02:47:52;15.60;85.80
43520;DHT22;46848;51.980;5.918;2023-05-10T02:50:18;15.60;85.90
43520;DHT22;46848;51.980;5.918;2023-05-10T02:52:50;15.60;85.90
43520;DHT22;46848;51.980;5.918;2023-05-10T02:55:21;15.60;85.80
43520;DHT22;46848;51.980;5.918;2023-05-10T02:57:51;15.60;86.30
43520;DHT22;46848;51.980;5.918;2023-05-10T03:00:18;15.60;85.70
43520;DHT22;46848;51.980;5.918;2023-05-10T03:02:43;15.50;85.50
43520;DHT22;46848;51.980;5.918;2023-05-10T03:05:09;15.60;85.60
43520;DHT22;46848;51.980;5.918;2023-05-10T03:07:35;15.50;85.50
43520;DHT22;46848;51.980;5.918;2023-05-10T03:10:01;15.50;85.40
43520;DHT22;46848;51.980;5.918;2023-05-10T03:15:47;15.50;85.50
43520;DHT22;46848;51.980;5.918;2023-05-10T03:18:15;15.50;84.90
43520;DHT22;46848;51.980;5.918;2023-05-10T03:20:51;15.50;84.70
43520;DHT22;46848;51.980;5.918;2023-05-10T03:23:41;15.40;84.90
43520;DHT22;46848;51.980;5.918;2023-05-10T03:26:08;15.40;85.00
43520;DHT22;46848;51.980;5.918;2023-05-10T03:28:35;15.40;84.90
43520;DHT22;46848;51.980;5.918;2023-05-10T03:31:04;15.30;84.70
43520;DHT22;46848;51.980;5.918;2023-05-10T03:33:31;15.30;84.40
43520;DHT22;46848;51.980;5.918;2023-05-10T03:35:57;15.30;84.40
43520;DHT22;46848;51.980;5.918;2023-05-10T03:38:23;15.20;84.10
43520;DHT22;46848;51.980;5.918;2023-05-10T03:40:49;15.20;84.30
43520;DHT22;46848;51.980;5.918;2023-05-10T03:43:14;15.20;84.40
43520;DHT22;46848;51.980;5.918;2023-05-10T03:45:40;15.20;84.70
43520;DHT22;46848;51.980;5.918;2023-05-10T03:48:05;15.20;84.60
43520;DHT22;46848;51.980;5.918;2023-05-10T03:50:31;15.20;84.50
43520;DHT22;46848;51.980;5.918;2023-05-10T03:52:57;15.20;84.70
43520;DHT22;46848;51.980;5.918;2023-05-10T03:55:23;15.20;84.70
43520;DHT22;46848;51.980;5.918;2023-05-10T03:57:48;15.20;84.50
43520;DHT22;46848;51.980;5.918;2023-05-10T04:00:15;15.20;84.60
43520;DHT22;46848;51.980;5.918;2023-05-10T04:02:40;15.20;84.60
43520;DHT22;46848;51.980;5.918;2023-05-10T04:05:06;15.10;84.60
43520;DHT22;46848;51.980;5.918;2023-05-10T04:07:32;15.10;84.30
43520;DHT22;46848;51.980;5.918;2023-05-10T04:09:58;15.10;84.30
43520;DHT22;46848;51.980;5.918;2023-05-10T04:12:24;15.10;84.20
43520;DHT22;46848;51.980;5.918;2023-05-10T04:14:49;15.10;84.20
43520;DHT22;46848;51.980;5.918;2023-05-10T04:17:15;15.10;84.40
43520;DHT22;46848;51.980;5.918;2023-05-10T04:19:40;15.10;84.40
43520;DHT22;46848;51.980;5.918;2023-05-10T04:22:06;15.10;84.50
43520;DHT22;46848;51.980;5.918;2023-05-10T04:24:31;15.10;84.40
43520;DHT22;46848;51.980;5.918;2023-05-10T04:26:57;15.10;84.50
43520;DHT22;46848;51.980;5.918;2023-05-10T04:29:22;15.10;84.60
43520;DHT22;46848;51.980;5.918;2023-05-10T04:31:48;15.10;84.50
43520;DHT22;46848;51.980;5.918;2023-05-10T04:34:14;15.10;84.40
43520;DHT22;46848;51.980;5.918;2023-05-10T04:36:39;15.10;84.60
43520;DHT22;46848;51.980;5.918;2023-05-10T04:39:05;15.10;84.60
43520;DHT22;46848;51.980;5.918;2023-05-10T04:41:31;15.10;84.70
43520;DHT22;46848;51.980;5.918;2023-05-10T04:44:05;15.10;84.80
43520;DHT22;46848;51.980;5.918;2023-05-10T04:46:31;15.10;84.90
43520;DHT22;46848;51.980;5.918;2023-05-10T04:48:57;15.20;85.00
43520;DHT22;46848;51.980;5.918;2023-05-10T04:51:22;15.20;85.00
43520;DHT22;46848;51.980;5.918;2023-05-10T04:53:48;15.20;85.00
43520;DHT22;46848;51.980;5.918;2023-05-10T04:56:14;15.20;85.00
43520;DHT22;46848;51.980;5.918;2023-05-10T04:58:39;15.20;85.10
43520;DHT22;46848;51.980;5.918;2023-05-10T05:01:06;15.20;85.20
43520;DHT22;46848;51.980;5.918;2023-05-10T05:03:32;15.20;85.00
43520;DHT22;46848;51.980;5.918;2023-05-10T05:05:58;15.30;85.10
43520;DHT22;46848;51.980;5.918;2023-05-10T05:08:24;15.20;84.80
43520;DHT22;46848;51.980;5.918;2023-05-10T05:10:50;15.30;85.00
43520;DHT22;46848;51.980;5.918;2023-05-10T05:13:15;15.30;85.00
43520;DHT22;46848;51.980;5.918;2023-05-10T05:15:41;15.20;85.00
43520;DHT22;46848;51.980;5.918;2023-05-10T05:18:06;15.20;84.90
43520;DHT22;46848;51.980;5.918;2023-05-10T05:20:33;15.30;84.90
43520;DHT22;46848;51.980;5.918;2023-05-10T05:22:59;15.30;84.90
43520;DHT22;46848;51.980;5.918;2023-05-10T05:25:25;15.30;84.90
43520;DHT22;46848;51.980;5.918;2023-05-10T05:27:51;15.30;84.90
43520;DHT22;46848;51.980;5.918;2023-05-10T05:30:16;15.30;85.00
43520;DHT22;46848;51.980;5.918;2023-05-10T05:32:42;15.30;85.10
43520;DHT22;46848;51.980;5.918;2023-05-10T05:35:08;15.30;85.10
43520;DHT22;46848;51.980;5.918;2023-05-10T05:37:33;15.30;85.10
43520;DHT22;46848;51.980;5.918;2023-05-10T05:39:59;15.40;85.20
43520;DHT22;46848;51.980;5.918;2023-05-10T05:42:27;15.50;85.30
43520;DHT22;46848;51.980;5.918;2023-05-10T05:44:52;15.50;85.20
43520;DHT22;46848;51.980;5.918;2023-05-10T05:47:18;15.60;84.90
43520;DHT22;46848;51.980;5.918;2023-05-10T05:49:43;15.60;84.80
43520;DHT22;46848;51.980;5.918;2023-05-10T05:52:11;15.60;84.80
43520;DHT22;46848;51.980;5.918;2023-05-10T05:54:36;15.70;84.70
43520;DHT22;46848;51.980;5.918;2023-05-10T05:57:02;15.70;84.50
43520;DHT22;46848;51.980;5.918;2023-05-10T05:59:28;15.80;84.50
43520;DHT22;46848;51.980;5.918;2023-05-10T06:01:53;15.90;84.50
43520;DHT22;46848;51.980;5.918;2023-05-10T06:04:19;15.80;84.30
43520;DHT22;46848;51.980;5.918;2023-05-10T06:06:45;15.90;84.40
43520;DHT22;46848;51.980;5.918;2023-05-10T06:09:11;16.00;84.40
43520;DHT22;46848;51.980;5.918;2023-05-10T06:11:36;16.00;84.30
43520;DHT22;46848;51.980;5.918;2023-05-10T06:14:04;16.00;84.20
43520;DHT22;46848;51.980;5.918;2023-05-10T06:16:32;16.00;84.10
43520;DHT22;46848;51.980;5.918;2023-05-10T06:18:58;16.00;84.10
43520;DHT22;46848;51.980;5.918;2023-05-10T06:21:23;16.10;84.20
43520;DHT22;46848;51.980;5.918;2023-05-10T06:23:49;16.10;84.30
43520;DHT22;46848;51.980;5.918;2023-05-10T06:26:14;16.10;84.20
43520;DHT22;46848;51.980;5.918;2023-05-10T06:28:40;16.10;84.20
43520;DHT22;46848;51.980;5.918;2023-05-10T06:31:06;16.10;84.20
43520;DHT22;46848;51.980;5.918;2023-05-10T06:33:32;16.10;84.20
43520;DHT22;46848;51.980;5.918;2023-05-10T06:35:58;16.10;84.20
43520;DHT22;46848;51.980;5.918;2023-05-10T06:38:23;16.10;84.20
43520;DHT22;46848;51.980;5.918;2023-05-10T06:40:49;16.10;84.20
43520;DHT22;46848;51.980;5.918;2023-05-10T06:43:15;16.00;84.10
43520;DHT22;46848;51.980;5.918;2023-05-10T06:45:41;16.10;84.20
43520;DHT22;46848;51.980;5.918;2023-05-10T06:48:07;16.10;84.20
43520;DHT22;46848;51.980;5.918;2023-05-10T06:50:33;16.10;84.10
43520;DHT22;46848;51.980;5.918;2023-05-10T06:52:59;16.10;84.20
43520;DHT22;46848;51.980;5.918;2023-05-10T06:55:25;16.10;84.20
43520;DHT22;46848;51.980;5.918;2023-05-10T06:57:51;16.10;84.10
43520;DHT22;46848;51.980;5.918;2023-05-10T07:00:18;16.10;84.10
43520;DHT22;46848;51.980;5.918;2023-05-10T07:02:44;16.10;84.20
43520;DHT22;46848;51.980;5.918;2023-05-10T07:05:09;16.10;84.60
43520;DHT22;46848;51.980;5.918;2023-05-10T07:07:35;16.20;83.90
43520;DHT22;46848;51.980;5.918;2023-05-10T07:10:01;16.20;83.90
43520;DHT22;46848;51.980;5.918;2023-05-10T07:12:27;16.20;83.90
43520;DHT22;46848;51.980;5.918;2023-05-10T07:14:53;16.20;83.90
43520;DHT22;46848;51.980;5.918;2023-05-10T07:17:18;16.20;83.60
43520;DHT22;46848;51.980;5.918;2023-05-10T07:19:44;16.20;83.50
43520;DHT22;46848;51.980;5.918;2023-05-10T07:22:09;16.20;83.30
43520;DHT22;46848;51.980;5.918;2023-05-10T07:24:35;16.20;83.40
43520;DHT22;46848;51.980;5.918;2023-05-10T07:27:01;16.30;83.50
43520;DHT22;46848;51.980;5.918;2023-05-10T07:29:27;16.30;83.30
43520;DHT22;46848;51.980;5.918;2023-05-10T07:31:52;16.30;83.40
43520;DHT22;46848;51.980;5.918;2023-05-10T07:34:18;16.30;83.30
43520;DHT22;46848;51.980;5.918;2023-05-10T07:36:44;16.30;83.30
43520;DHT22;46848;51.980;5.918;2023-05-10T07:39:10;16.30;83.30
43520;DHT22;46848;51.980;5.918;2023-05-10T07:41:35;16.30;83.40
43520;DHT22;46848;51.980;5.918;2023-05-10T07:44:03;16.40;83.40
43520;DHT22;46848;51.980;5.918;2023-05-10T07:46:29;16.50;83.50
43520;DHT22;46848;51.980;5.918;2023-05-10T07:48:55;16.40;83.30
43520;DHT22;46848;51.980;5.918;2023-05-10T07:51:21;16.50;83.30
43520;DHT22;46848;51.980;5.918;2023-05-10T07:53:46;16.60;83.20
43520;DHT22;46848;51.980;5.918;2023-05-10T07:56:27;16.60;83.10
43520;DHT22;46848;51.980;5.918;2023-05-10T07:58:55;16.60;83.00
43520;DHT22;46848;51.980;5.918;2023-05-10T08:01:21;16.70;83.00
43520;DHT22;46848;51.980;5.918;2023-05-10T08:03:47;16.70;82.90
43520;DHT22;46848;51.980;5.918;2023-05-10T08:06:14;16.70;83.40
43520;DHT22;46848;51.980;5.918;2023-05-10T08:08:40;16.70;82.80
43520;DHT22;46848;51.980;5.918;2023-05-10T08:11:06;16.80;82.80
43520;DHT22;46848;51.980;5.918;2023-05-10T08:13:32;16.80;82.80
43520;DHT22;46848;51.980;5.918;2023-05-10T08:15:57;16.90;82.70
43520;DHT22;46848;51.980;5.918;2023-05-10T08:18:23;17.00;82.50
43520;DHT22;46848;51.980;5.918;2023-05-10T08:20:48;17.10;82.30
43520;DHT22;46848;51.980;5.918;2023-05-10T08:23:14;17.30;82.10
43520;DHT22;46848;51.980;5.918;2023-05-10T08:25:40;17.30;81.80
43520;DHT22;46848;51.980;5.918;2023-05-10T08:28:05;17.50;81.60
43520;DHT22;46848;51.980;5.918;2023-05-10T08:30:31;17.50;81.30
43520;DHT22;46848;51.980;5.918;2023-05-10T08:32:56;17.60;81.10
43520;DHT22;46848;51.980;5.918;2023-05-10T08:35:22;17.60;80.80
43520;DHT22;46848;51.980;5.918;2023-05-10T08:37:48;17.60;80.60
43520;DHT22;46848;51.980;5.918;2023-05-10T08:40:14;17.60;80.20
43520;DHT22;46848;51.980;5.918;2023-05-10T08:42:43;17.60;80.00
43520;DHT22;46848;51.980;5.918;2023-05-10T08:45:13;17.60;79.80
43520;DHT22;46848;51.980;5.918;2023-05-10T08:47:40;17.60;79.70
43520;DHT22;46848;51.980;5.918;2023-05-10T08:50:06;17.50;79.40
43520;DHT22;46848;51.980;5.918;2023-05-10T08:52:33;17.50;79.40
43520;DHT22;46848;51.980;5.918;2023-05-10T08:55:04;17.40;79.30
43520;DHT22;46848;51.980;5.918;2023-05-10T08:57:29;17.40;79.30
43520;DHT22;46848;51.980;5.918;2023-05-10T08:59:55;17.40;79.20
43520;DHT22;46848;51.980;5.918;2023-05-10T09:02:21;17.40;79.20
43520;DHT22;46848;51.980;5.918;2023-05-10T09:04:48;17.50;79.10
43520;DHT22;46848;51.980;5.918;2023-05-10T09:07:14;17.50;78.80
43520;DHT22;46848;51.980;5.918;2023-05-10T09:09:40;17.50;78.40
43520;DHT22;46848;51.980;5.918;2023-05-10T09:12:05;17.50;78.40
43520;DHT22;46848;51.980;5.918;2023-05-10T09:14:34;17.50;78.20
43520;DHT22;46848;51.980;5.918;2023-05-10T09:17:00;17.60;78.20
43520;DHT22;46848;51.980;5.918;2023-05-10T09:19:27;17.80;78.00
43520;DHT22;46848;51.980;5.918;2023-05-10T09:21:53;17.90;77.70
43520;DHT22;46848;51.980;5.918;2023-05-10T09:24:19;18.20;77.50
43520;DHT22;46848;51.980;5.918;2023-05-10T09:26:48;18.40;76.90
43520;DHT22;46848;51.980;5.918;2023-05-10T09:29:14;18.50;75.90
43520;DHT22;46848;51.980;5.918;2023-05-10T09:31:47;18.50;75.50
43520;DHT22;46848;51.980;5.918;2023-05-10T09:34:21;18.50;75.20
43520;DHT22;46848;51.980;5.918;2023-05-10T09:36:52;18.60;75.00
43520;DHT22;46848;51.980;5.918;2023-05-10T09:39:19;18.60;74.90
43520;DHT22;46848;51.980;5.918;2023-05-10T09:41:44;18.60;74.60
43520;DHT22;46848;51.980;5.918;2023-05-10T09:44:10;18.50;74.50
43520;DHT22;46848;51.980;5.918;2023-05-10T09:46:35;18.50;74.20
43520;DHT22;46848;51.980;5.918;2023-05-10T09:49:02;18.60;74.10
43520;DHT22;46848;51.980;5.918;2023-05-10T09:51:27;18.50;73.60
43520;DHT22;46848;51.980;5.918;2023-05-10T09:54:15;18.50;73.50
43520;DHT22;46848;51.980;5.918;2023-05-10T09:56:42;18.60;73.70
43520;DHT22;46848;51.980;5.918;2023-05-10T09:59:11;18.60;73.50
43520;DHT22;46848;51.980;5.918;2023-05-10T10:01:37;18.70;73.50
43520;DHT22;46848;51.980;5.918;2023-05-10T10:04:08;18.70;73.50
43520;DHT22;46848;51.980;5.918;2023-05-10T10:06:40;18.80;73.30
43520;DHT22;46848;51.980;5.918;2023-05-10T10:09:07;18.80;73.10
43520;DHT22;46848;51.980;5.918;2023-05-10T10:11:35;18.80;73.00
43520;DHT22;46848;51.980;5.918;2023-05-10T10:14:01;18.70;72.90
43520;DHT22;46848;51.980;5.918;2023-05-10T10:16:30;18.70;72.80
43520;DHT22;46848;51.980;5.918;2023-05-10T10:18:56;18.70;72.90
43520;DHT22;46848;51.980;5.918;2023-05-10T10:21:22;18.80;73.00
43520;DHT22;46848;51.980;5.918;2023-05-10T10:23:48;18.70;72.50
43520;DHT22;46848;51.980;5.918;2023-05-10T10:26:16;18.70;72.80
43520;DHT22;46848;51.980;5.918;2023-05-10T10:28:57;18.70;72.90
43520;DHT22;46848;51.980;5.918;2023-05-10T10:34:09;18.60;72.70
43520;DHT22;46848;51.980;5.918;2023-05-10T10:36:45;18.70;72.90
43520;DHT22;46848;51.980;5.918;2023-05-10T10:39:11;18.70;72.80
43520;DHT22;46848;51.980;5.918;2023-05-10T10:41:52;18.60;72.70
43520;DHT22;46848;51.980;5.918;2023-05-10T10:47:21;18.60;72.90
43520;DHT22;46848;51.980;5.918;2023-05-10T10:50:07;18.70;73.70
43520;DHT22;46848;51.980;5.918;2023-05-10T10:52:42;18.80;72.90
43520;DHT22;46848;51.980;5.918;2023-05-10T10:55:10;18.70;72.70
43520;DHT22;46848;51.980;5.918;2023-05-10T10:57:50;18.70;73.20
43520;DHT22;46848;51.980;5.918;2023-05-10T11:00:24;18.70;72.60
43520;DHT22;46848;51.980;5.918;2023-05-10T11:02:51;18.70;72.50
43520;DHT22;46848;51.980;5.918;2023-05-10T11:05:39;18.70;72.40
43520;DHT22;46848;51.980;5.918;2023-05-10T11:08:27;18.70;72.30
43520;DHT22;46848;51.980;5.918;2023-05-10T11:11:05;18.80;72.40
43520;DHT22;46848;51.980;5.918;2023-05-10T11:16:25;18.80;72.10
43520;DHT22;46848;51.980;5.918;2023-05-10T11:21:27;18.80;72.00
43520;DHT22;46848;51.980;5.918;2023-05-10T11:23:54;18.90;72.00
43520;DHT22;46848;51.980;5.918;2023-05-10T11:26:32;18.90;71.80
43520;DHT22;46848;51.980;5.918;2023-05-10T11:28:58;19.00;71.70
43520;DHT22;46848;51.980;5.918;2023-05-10T11:31:26;19.10;71.60
43520;DHT22;46848;51.980;5.918;2023-05-10T11:33:55;19.10;71.50
43520;DHT22;46848;51.980;5.918;2023-05-10T11:36:28;19.30;71.50
43520;DHT22;46848;51.980;5.918;2023-05-10T11:38:55;19.40;71.20
43520;DHT22;46848;51.980;5.918;2023-05-10T11:41:22;19.50;70.90
43520;DHT22;46848;51.980;5.918;2023-05-10T11:43:53;19.60;70.60
43520;DHT22;46848;51.980;5.918;2023-05-10T11:46:20;19.80;70.40
43520;DHT22;46848;51.980;5.918;2023-05-10T11:48:49;19.80;70.20
43520;DHT22;46848;51.980;5.918;2023-05-10T11:51:19;19.90;69.90
43520;DHT22;46848;51.980;5.918;2023-05-10T11:53:44;20.00;69.80
43520;DHT22;46848;51.980;5.918;2023-05-10T11:56:10;20.10;69.40
43520;DHT22;46848;51.980;5.918;2023-05-10T11:58:37;20.10;68.90
43520;DHT22;46848;51.980;5.918;2023-05-10T12:01:05;20.20;68.80
43520;DHT22;46848;51.980;5.918;2023-05-10T12:03:32;20.20;68.30
43520;DHT22;46848;51.980;5.918;2023-05-10T12:05:58;20.20;68.00
43520;DHT22;46848;51.980;5.918;2023-05-10T12:08:26;20.20;68.10
43520;DHT22;46848;51.980;5.918;2023-05-10T12:10:54;20.30;68.30
43520;DHT22;46848;51.980;5.918;2023-05-10T12:13:29;20.30;68.20
43520;DHT22;46848;51.980;5.918;2023-05-10T12:15:57;20.40;68.20
43520;DHT22;46848;51.980;5.918;2023-05-10T12:18:24;20.50;68.00
43520;DHT22;46848;51.980;5.918;2023-05-10T12:20:53;20.60;67.70
43520;DHT22;46848;51.980;5.918;2023-05-10T12:23:20;20.60;67.70
43520;DHT22;46848;51.980;5.918;2023-05-10T12:25:46;20.70;67.40
43520;DHT22;46848;51.980;5.918;2023-05-10T12:28:12;20.70;67.50
43520;DHT22;46848;51.980;5.918;2023-05-10T12:30:38;20.70;67.40
43520;DHT22;46848;51.980;5.918;2023-05-10T12:33:08;20.80;67.50
43520;DHT22;46848;51.980;5.918;2023-05-10T12:35:53;20.90;67.50
43520;DHT22;46848;51.980;5.918;2023-05-10T12:38:31;21.00;66.80
43520;DHT22;46848;51.980;5.918;2023-05-10T12:41:02;20.90;66.80
43520;DHT22;46848;51.980;5.918;2023-05-10T12:43:28;20.90;67.00
43520;DHT22;46848;51.980;5.918;2023-05-10T12:45:54;20.90;67.20
43520;DHT22;46848;51.980;5.918;2023-05-10T12:48:20;20.90;67.10
43520;DHT22;46848;51.980;5.918;2023-05-10T12:50:46;20.90;67.10
43520;DHT22;46848;51.980;5.918;2023-05-10T12:53:13;20.90;67.10
43520;DHT22;46848;51.980;5.918;2023-05-10T12:55:41;20.90;66.90
43520;DHT22;46848;51.980;5.918;2023-05-10T12:58:06;21.00;66.70
43520;DHT22;46848;51.980;5.918;2023-05-10T13:00:32;21.00;66.10
43520;DHT22;46848;51.980;5.918;2023-05-10T13:02:57;21.00;66.10
43520;DHT22;46848;51.980;5.918;2023-05-10T13:05:23;21.00;66.00
43520;DHT22;46848;51.980;5.918;2023-05-10T13:07:49;21.00;66.40
43520;DHT22;46848;51.980;5.918;2023-05-10T13:10:14;21.00;65.70
43520;DHT22;46848;51.980;5.918;2023-05-10T13:12:40;21.00;65.70
43520;DHT22;46848;51.980;5.918;2023-05-10T13:15:06;21.00;65.70
43520;DHT22;46848;51.980;5.918;2023-05-10T13:17:32;21.00;65.80
43520;DHT22;46848;51.980;5.918;2023-05-10T13:19:58;21.00;65.70
43520;DHT22;46848;51.980;5.918;2023-05-10T13:22:23;21.10;65.60
43520;DHT22;46848;51.980;5.918;2023-05-10T13:24:49;21.00;65.40
43520;DHT22;46848;51.980;5.918;2023-05-10T13:27:15;21.10;65.60
43520;DHT22;46848;51.980;5.918;2023-05-10T13:29:40;21.00;65.70
43520;DHT22;46848;51.980;5.918;2023-05-10T13:32:06;21.00;65.70
43520;DHT22;46848;51.980;5.918;2023-05-10T13:34:32;20.90;65.60
43520;DHT22;46848;51.980;5.918;2023-05-10T13:36:57;20.90;65.80
43520;DHT22;46848;51.980;5.918;2023-05-10T13:39:23;20.80;65.80
43520;DHT22;46848;51.980;5.918;2023-05-10T13:41:49;20.80;65.90
43520;DHT22;46848;51.980;5.918;2023-05-10T13:44:14;20.70;66.10
43520;DHT22;46848;51.980;5.918;2023-05-10T13:46:41;20.60;66.10
43520;DHT22;46848;51.980;5.918;2023-05-10T13:49:08;20.60;66.20
43520;DHT22;46848;51.980;5.918;2023-05-10T13:51:34;20.50;66.40
43520;DHT22;46848;51.980;5.918;2023-05-10T13:54:01;20.50;66.50
43520;DHT22;46848;51.980;5.918;2023-05-10T13:56:27;20.40;66.90
43520;DHT22;46848;51.980;5.918;2023-05-10T13:58:52;20.30;67.30
43520;DHT22;46848;51.980;5.918;2023-05-10T14:01:18;20.20;67.60
43520;DHT22;46848;51.980;5.918;2023-05-10T14:03:44;20.10;67.90
43520;DHT22;46848;51.980;5.918;2023-05-10T14:06:11;20.00;68.00
43520;DHT22;46848;51.980;5.918;2023-05-10T14:08:36;19.90;68.40
43520;DHT22;46848;51.980;5.918;2023-05-10T14:11:02;19.80;68.80
43520;DHT22;46848;51.980;5.918;2023-05-10T14:13:28;19.80;69.20
43520;DHT22;46848;51.980;5.918;2023-05-10T14:15:54;19.70;69.30
43520;DHT22;46848;51.980;5.918;2023-05-10T14:18:20;19.60;69.40
43520;DHT22;46848;51.980;5.918;2023-05-10T14:20:46;19.60;69.70
43520;DHT22;46848;51.980;5.918;2023-05-10T14:23:12;19.50;69.90
43520;DHT22;46848;51.980;5.918;2023-05-10T14:25:39;19.50;70.00
43520;DHT22;46848;51.980;5.918;2023-05-10T14:28:05;19.50;70.10
43520;DHT22;46848;51.980;5.918;2023-05-10T14:30:31;19.50;70.20
43520;DHT22;46848;51.980;5.918;2023-05-10T14:32:58;19.50;70.40
43520;DHT22;46848;51.980;5.918;2023-05-10T14:35:23;19.50;70.50
43520;DHT22;46848;51.980;5.918;2023-05-10T14:37:49;19.50;70.60
43520;DHT22;46848;51.980;5.918;2023-05-10T14:40:15;19.50;70.70
43520;DHT22;46848;51.980;5.918;2023-05-10T14:42:42;19.50;70.80
43520;DHT22;46848;51.980;5.918;2023-05-10T14:45:09;19.50;70.80
43520;DHT22;46848;51.980;5.918;2023-05-10T14:47:35;19.50;70.80
43520;DHT22;46848;51.980;5.918;2023-05-10T14:50:01;19.50;70.70
43520;DHT22;46848;51.980;5.918;2023-05-10T14:52:27;19.40;70.50
43520;DHT22;46848;51.980;5.918;2023-05-10T14:54:53;19.40;71.10
43520;DHT22;46848;51.980;5.918;2023-05-10T14:57:18;19.40;70.60
43520;DHT22;46848;51.980;5.918;2023-05-10T14:59:44;19.40;70.50
43520;DHT22;46848;51.980;5.918;2023-05-10T15:02:10;19.40;70.50
43520;DHT22;46848;51.980;5.918;2023-05-10T15:04:36;19.40;70.50
43520;DHT22;46848;51.980;5.918;2023-05-10T15:07:01;19.30;70.40
43520;DHT22;46848;51.980;5.918;2023-05-10T15:09:27;19.30;70.50
43520;DHT22;46848;51.980;5.918;2023-05-10T15:11:53;19.40;70.60
43520;DHT22;46848;51.980;5.918;2023-05-10T15:14:19;19.50;70.50
43520;DHT22;46848;51.980;5.918;2023-05-10T15:16:44;19.50;70.60
43520;DHT22;46848;51.980;5.918;2023-05-10T15:19:10;19.50;70.50
43520;DHT22;46848;51.980;5.918;2023-05-10T15:21:35;19.60;70.40
43520;DHT22;46848;51.980;5.918;2023-05-10T15:24:05;19.60;70.50
43520;DHT22;46848;51.980;5.918;2023-05-10T15:26:33;19.60;70.40
43520;DHT22;46848;51.980;5.918;2023-05-10T15:28:59;19.60;70.20
43520;DHT22;46848;51.980;5.918;2023-05-10T15:31:25;19.60;70.20
43520;DHT22;46848;51.980;5.918;2023-05-10T15:33:50;19.60;70.10
43520;DHT22;46848;51.980;5.918;2023-05-10T15:36:16;19.60;70.10
43520;DHT22;46848;51.980;5.918;2023-05-10T15:38:43;19.60;70.00
43520;DHT22;46848;51.980;5.918;2023-05-10T15:41:09;19.60;70.10
43520;DHT22;46848;51.980;5.918;2023-05-10T15:43:34;19.50;70.00
43520;DHT22;46848;51.980;5.918;2023-05-10T15:46:00;19.50;70.00
43520;DHT22;46848;51.980;5.918;2023-05-10T15:48:26;19.50;69.90
43520;DHT22;46848;51.980;5.918;2023-05-10T15:50:51;19.60;69.80
43520;DHT22;46848;51.980;5.918;2023-05-10T15:53:17;19.50;69.70
43520;DHT22;46848;51.980;5.918;2023-05-10T15:55:43;19.40;69.70